createdAt,value
2022-12-09T00:00:12.080Z,20.87
2022-12-09T00:02:39.460Z,21.27
2022-12-09T00:05:06.525Z,22.37
2022-12-09T00:07:34.685Z,21.93
2022-12-09T00:10:01.138Z,23.23
2022-12-09T00:12:27.641Z,23.87
2022-12-09T00:14:54.271Z,28.83
2022-12-09T00:17:21.085Z,24.97
2022-12-09T00:19:47.606Z,20.50
2022-12-09T00:22:14.351Z,22.47
2022-12-09T00:24:40.969Z,21.77
2022-12-09T00:27:07.420Z,24.37
2022-12-09T00:29:33.884Z,23.27
2022-12-09T00:32:00.478Z,22.10
2022-12-09T00:34:27.070Z,25.20
2022-12-09T00:36:53.956Z,23.07
2022-12-09T00:39:20.500Z,22.17
2022-12-09T00:41:49.202Z,21.93
2022-12-09T00:44:16.150Z,22.20
2022-12-09T00:46:42.672Z,20.73
2022-12-09T00:49:10.399Z,20.53
2022-12-09T00:51:37.048Z,23.13
2022-12-09T00:54:03.572Z,22.23
2022-12-09T00:56:30.194Z,21.37
2022-12-09T00:58:57.635Z,20.00
2022-12-09T01:01:24.432Z,19.23
2022-12-09T01:03:51.134Z,22.47
2022-12-09T01:06:18.782Z,22.00
2022-12-09T01:08:45.874Z,21.33
2022-12-09T01:11:15.753Z,24.73
2022-12-09T01:13:42.454Z,21.33
2022-12-09T01:16:13.977Z,23.07
2022-12-09T01:18:40.439Z,22.73
2022-12-09T01:21:07.169Z,24.93
2022-12-09T01:23:34.132Z,26.13
2022-12-09T01:26:02.744Z,24.53
2022-12-09T01:28:29.710Z,21.57
2022-12-09T01:30:56.298Z,24.27
2022-12-09T01:33:22.767Z,23.70
2022-12-09T01:35:49.548Z,26.50
2022-12-09T01:38:16.065Z,24.67
2022-12-09T01:40:45.408Z,23.53
2022-12-09T01:43:19.044Z,24.90
2022-12-09T01:45:45.879Z,26.20
2022-12-09T01:48:14.459Z,23.10
2022-12-09T01:50:46.886Z,23.20
2022-12-09T01:53:14.128Z,23.10
2022-12-09T01:55:41.021Z,24.47
2022-12-09T01:58:08.234Z,24.63
2022-12-09T02:00:34.868Z,24.57
2022-12-09T02:03:02.635Z,23.40
2022-12-09T02:05:30.392Z,23.37
2022-12-09T02:07:57.257Z,24.47
2022-12-09T02:10:24.292Z,22.87
2022-12-09T02:12:59.343Z,21.77
2022-12-09T02:15:30.836Z,21.70
2022-12-09T02:18:00.288Z,25.77
2022-12-09T02:20:32.889Z,20.50
2022-12-09T02:23:17.688Z,20.23
2022-12-09T02:25:55.634Z,21.63
2022-12-09T02:28:40.456Z,21.43
2022-12-09T02:31:25.748Z,23.73
2022-12-09T02:34:12.960Z,23.50
2022-12-09T02:36:54.519Z,24.17
2022-12-09T02:39:28.445Z,26.77
2022-12-09T02:41:56.570Z,24.40
2022-12-09T02:44:24.380Z,24.63
2022-12-09T02:46:51.883Z,22.93
2022-12-09T02:49:19.584Z,25.83
2022-12-09T02:51:46.864Z,24.07
2022-12-09T02:54:15.510Z,25.53
2022-12-09T02:56:45.678Z,23.57
2022-12-09T02:59:12.401Z,24.73
2022-12-09T03:01:45.905Z,23.67
2022-12-09T03:04:16.107Z,19.97
2022-12-09T03:06:46.818Z,20.30
2022-12-09T03:09:19.549Z,20.75
2022-12-09T03:11:46.987Z,21.07
2022-12-09T03:14:16.432Z,20.77
2022-12-09T03:17:02.024Z,22.33
2022-12-09T03:19:29.116Z,19.37
2022-12-09T03:22:00.980Z,20.57
2022-12-09T03:24:36.383Z,17.67
2022-12-09T03:27:06.998Z,19.50
2022-12-09T03:29:35.384Z,21.55
2022-12-09T03:32:02.194Z,21.53
2022-12-09T03:34:31.276Z,21.37
2022-12-09T03:36:58.398Z,21.47
2022-12-09T03:39:26.892Z,22.53
2022-12-09T03:41:56.295Z,22.40
2022-12-09T03:44:25.570Z,25.40
2022-12-09T03:46:52.279Z,24.73
2022-12-09T03:49:19.108Z,23.50
2022-12-09T03:51:56.823Z,23.30
2022-12-09T03:54:55.542Z,24.60
2022-12-09T03:57:22.553Z,21.27
2022-12-09T03:59:52.694Z,23.30
2022-12-09T04:02:19.737Z,19.57
2022-12-09T04:04:46.777Z,19.57
2022-12-09T04:07:13.531Z,19.90
2022-12-09T04:09:40.099Z,22.13
2022-12-09T04:12:07.604Z,19.67
2022-12-09T04:14:34.113Z,21.53
2022-12-09T04:17:00.962Z,21.07
2022-12-09T04:19:27.760Z,22.00
2022-12-09T04:21:54.373Z,18.70
2022-12-09T04:24:20.982Z,21.50
2022-12-09T04:26:47.514Z,21.33
2022-12-09T04:29:14.162Z,22.33
2022-12-09T04:31:40.703Z,22.70
2022-12-09T04:34:09.747Z,22.33
2022-12-09T04:36:37.274Z,24.33
2022-12-09T04:39:03.850Z,23.83
2022-12-09T04:41:30.565Z,25.03
2022-12-09T04:43:57.016Z,23.23
2022-12-09T04:46:23.528Z,25.13
2022-12-09T04:48:50.563Z,24.73
2022-12-09T04:51:17.181Z,22.90
2022-12-09T04:53:43.934Z,24.80
2022-12-09T04:56:20.700Z,25.27
2022-12-09T04:58:47.815Z,24.53
2022-12-09T05:01:18.208Z,22.67
2022-12-09T05:03:47.945Z,21.23
2022-12-09T05:06:14.798Z,20.83
2022-12-09T05:08:42.422Z,24.17
2022-12-09T05:11:09.902Z,22.23
2022-12-09T05:13:36.974Z,19.83
2022-12-09T05:16:09.249Z,22.30
2022-12-09T05:18:39.002Z,20.10
2022-12-09T05:21:06.488Z,21.37
2022-12-09T05:23:33.437Z,18.17
2022-12-09T05:26:03.707Z,20.03
2022-12-09T05:28:30.365Z,23.03
2022-12-09T05:31:05.017Z,20.53
2022-12-09T05:33:31.998Z,19.63
2022-12-09T05:35:58.551Z,20.87
2022-12-09T05:38:25.713Z,18.90
2022-12-09T05:40:52.631Z,19.97
2022-12-09T05:43:19.505Z,20.17
2022-12-09T05:45:47.271Z,19.73
2022-12-09T05:48:14.067Z,20.20
2022-12-09T05:50:40.721Z,22.20
2022-12-09T05:53:07.280Z,19.43
2022-12-09T05:55:34.137Z,22.43
2022-12-09T05:58:00.941Z,23.43
2022-12-09T06:00:27.527Z,22.57
2022-12-09T06:02:54.595Z,25.93
2022-12-09T06:05:21.935Z,29.27
2022-12-09T06:07:48.961Z,26.07
2022-12-09T06:10:16.234Z,27.30
2022-12-09T06:12:43.094Z,29.50
2022-12-09T06:15:10.971Z,25.97
2022-12-09T06:17:39.530Z,26.77
2022-12-09T06:20:07.159Z,23.23
2022-12-09T06:22:34.556Z,25.03
2022-12-09T06:25:01.166Z,24.67
2022-12-09T06:27:27.724Z,27.07
2022-12-09T06:29:54.685Z,24.83
2022-12-09T06:32:21.347Z,22.07
2022-12-09T06:34:48.661Z,26.10
2022-12-09T06:37:16.009Z,24.07
2022-12-09T06:39:42.610Z,21.37
2022-12-09T06:42:09.549Z,23.50
2022-12-09T06:44:36.103Z,24.70
2022-12-09T06:47:02.673Z,22.53
2022-12-09T06:49:29.366Z,19.70
2022-12-09T06:51:56.330Z,19.30
2022-12-09T06:54:23.091Z,20.10
2022-12-09T06:56:49.683Z,19.23
2022-12-09T06:59:16.296Z,20.67
2022-12-09T07:01:42.990Z,17.57
2022-12-09T07:04:11.483Z,19.73
2022-12-09T07:06:39.326Z,18.70
2022-12-09T07:09:10.564Z,18.20
2022-12-09T07:14:04.401Z,18.03
2022-12-09T07:16:31.458Z,18.10
2022-12-09T07:18:58.493Z,18.97
2022-12-09T07:21:25.551Z,20.83
2022-12-09T07:23:52.641Z,20.00
2022-12-09T07:26:19.428Z,21.57
2022-12-09T07:28:50.564Z,24.57
2022-12-09T07:31:21.809Z,25.40
2022-12-09T07:33:49.134Z,24.73
2022-12-09T07:36:20.661Z,26.27
2022-12-09T07:38:48.322Z,25.03
2022-12-09T07:41:18.589Z,27.83
2022-12-09T07:43:46.161Z,25.52
2022-12-09T07:46:14.175Z,25.50
2022-12-09T07:48:40.804Z,25.07
2022-12-09T07:51:08.068Z,24.20
2022-12-09T07:53:35.869Z,26.63
2022-12-09T07:56:06.815Z,25.60
2022-12-09T07:58:33.712Z,21.92
2022-12-09T08:01:07.617Z,22.43
2022-12-09T08:03:34.928Z,22.53
2022-12-09T08:06:02.476Z,25.70
2022-12-09T08:08:29.609Z,23.97
2022-12-09T08:10:57.072Z,27.53
2022-12-09T08:13:23.737Z,24.43
2022-12-09T08:15:50.559Z,27.00
2022-12-09T08:18:17.330Z,25.20
2022-12-09T08:20:44.458Z,21.83
2022-12-09T08:23:11.056Z,21.87
2022-12-09T08:25:38.118Z,18.87
2022-12-09T08:28:04.879Z,20.90
2022-12-09T08:30:31.594Z,18.43
2022-12-09T08:32:58.328Z,21.17
2022-12-09T08:35:25.083Z,19.83
2022-12-09T08:37:51.575Z,21.60
2022-12-09T08:40:18.062Z,21.07
2022-12-09T08:42:44.669Z,21.87
2022-12-09T08:45:11.364Z,22.13
2022-12-09T08:47:38.112Z,22.50
2022-12-09T08:50:05.480Z,22.20
2022-12-09T08:52:38.714Z,21.67
2022-12-09T08:55:07.056Z,23.50
2022-12-09T08:57:33.835Z,22.53
2022-12-09T09:00:00.590Z,21.40
2022-12-09T09:02:36.358Z,20.70
2022-12-09T09:05:03.891Z,20.37
2022-12-09T09:07:31.338Z,20.07
2022-12-09T09:10:01.307Z,20.90
2022-12-09T09:12:28.017Z,22.30
2022-12-09T09:14:54.825Z,21.53
2022-12-09T09:17:21.935Z,21.50
2022-12-09T09:19:48.718Z,19.37
2022-12-09T09:22:15.724Z,22.00
2022-12-09T09:24:42.391Z,20.53
2022-12-09T09:27:08.957Z,23.13
2022-12-09T09:29:35.798Z,19.63
2022-12-09T09:32:02.799Z,23.97
2022-12-09T09:34:29.852Z,23.30
2022-12-09T09:36:56.701Z,26.20
2022-12-09T09:39:23.934Z,29.67
2022-12-09T09:41:52.650Z,21.93
2022-12-09T09:44:19.649Z,20.40
2022-12-09T09:46:47.998Z,21.27
2022-12-09T09:49:18.917Z,21.63
2022-12-09T09:51:46.199Z,19.88
2022-12-09T09:54:14.068Z,19.50
2022-12-09T09:56:55.175Z,25.20
2022-12-09T09:59:27.916Z,25.02
2022-12-09T10:02:13.065Z,25.30
2022-12-09T10:05:05.041Z,22.73
2022-12-09T10:07:38.465Z,24.07
2022-12-09T10:10:24.082Z,20.93
2022-12-09T10:13:14.481Z,20.80
2022-12-09T10:15:54.044Z,19.37
2022-12-09T10:18:26.165Z,20.27
2022-12-09T10:20:53.105Z,19.87
2022-12-09T10:23:21.568Z,19.97
2022-12-09T10:25:53.164Z,23.60
2022-12-09T10:28:25.413Z,22.20
2022-12-09T10:30:53.474Z,23.00
2022-12-09T10:33:26.919Z,21.20
2022-12-09T10:35:54.212Z,22.73
2022-12-09T10:38:22.202Z,22.47
2022-12-09T10:41:07.345Z,23.03
2022-12-09T10:43:44.136Z,20.83
2022-12-09T10:46:20.411Z,23.63
2022-12-09T10:48:47.872Z,20.83
2022-12-09T10:51:20.030Z,17.60
2022-12-09T10:53:49.484Z,18.20
2022-12-09T10:56:35.902Z,19.13
2022-12-09T10:59:08.980Z,19.07
2022-12-09T11:01:54.714Z,19.10
2022-12-09T11:04:23.967Z,19.90
2022-12-09T11:06:57.394Z,18.03
2022-12-09T11:09:30.217Z,18.53
2022-12-09T11:11:57.827Z,17.37
2022-12-09T11:14:34.284Z,17.80
2022-12-09T11:17:15.438Z,19.23
2022-12-09T11:19:42.756Z,18.67
2022-12-09T11:22:21.435Z,21.37
2022-12-09T11:24:49.049Z,22.67
2022-12-09T11:27:28.192Z,20.23
2022-12-09T11:30:16.766Z,17.10
2022-12-09T11:32:56.656Z,17.97
2022-12-09T11:35:29.704Z,16.00
2022-12-09T11:37:58.523Z,17.60
2022-12-09T11:40:26.415Z,19.20
2022-12-09T11:42:53.772Z,20.87
2022-12-09T11:45:28.079Z,20.40
2022-12-09T11:48:27.716Z,19.53
2022-12-09T11:50:53.816Z,19.70
2022-12-09T11:53:25.426Z,18.93
2022-12-09T11:55:53.944Z,16.17
2022-12-09T11:58:23.525Z,14.50
2022-12-09T12:00:56.175Z,14.43
2022-12-09T12:03:25.670Z,13.17
2022-12-09T12:05:53.326Z,11.87
2022-12-09T12:08:28.534Z,11.13
2022-12-09T12:11:00.760Z,11.10
2022-12-09T12:13:47.069Z,11.17
2022-12-09T12:16:31.559Z,11.13
2022-12-09T12:19:05.272Z,12.13
2022-12-09T12:21:43.763Z,10.57
2022-12-09T12:24:15.994Z,11.07
2022-12-09T12:26:51.650Z,12.80
2022-12-09T12:29:30.311Z,13.57
2022-12-09T12:32:05.843Z,14.67
2022-12-09T12:34:40.949Z,15.43
2022-12-09T12:37:07.338Z,15.80
2022-12-09T12:39:36.759Z,15.13
2022-12-09T12:42:05.997Z,15.40
2022-12-09T12:45:06.300Z,14.30
2022-12-09T12:47:43.820Z,14.33
2022-12-09T12:50:28.791Z,14.33
2022-12-09T12:53:04.229Z,15.03
2022-12-09T12:55:47.222Z,14.57
2022-12-09T12:58:19.846Z,15.93
2022-12-09T13:00:56.379Z,14.20
2022-12-09T13:03:25.814Z,14.47
2022-12-09T13:05:54.075Z,13.40
2022-12-09T13:08:33.692Z,14.53
2022-12-09T13:11:02.957Z,16.23
2022-12-09T13:13:31.796Z,14.27
2022-12-09T13:16:00.621Z,15.33
2022-12-09T13:18:31.161Z,14.10
2022-12-09T13:20:58.717Z,15.73
2022-12-09T13:23:43.713Z,15.87
2022-12-09T13:26:26.188Z,16.93
2022-12-09T13:29:11.442Z,16.23
2022-12-09T13:31:42.330Z,14.90
2022-12-09T13:34:08.689Z,15.25
2022-12-09T13:36:36.750Z,15.97
2022-12-09T13:39:03.630Z,15.00
2022-12-09T13:41:30.157Z,15.23
2022-12-09T13:44:07.607Z,16.40
2022-12-09T13:46:34.925Z,15.37
2022-12-09T13:49:20.210Z,14.27
2022-12-09T13:51:49.631Z,14.60
2022-12-09T13:54:17.456Z,14.87
2022-12-09T13:56:44.247Z,13.23
2022-12-09T13:59:10.854Z,14.50
2022-12-09T14:01:48.026Z,14.27
2022-12-09T14:04:20.380Z,16.57
2022-12-09T14:06:46.888Z,13.30
2022-12-09T14:09:34.502Z,12.87
2022-12-09T14:12:02.529Z,14.60
2022-12-09T14:14:28.880Z,13.67
2022-12-09T14:17:02.760Z,16.83
2022-12-09T14:19:31.378Z,14.57
2022-12-09T14:22:16.981Z,15.40
2022-12-09T14:24:49.477Z,15.10
2022-12-09T14:27:16.120Z,12.67
2022-12-09T14:29:42.673Z,12.90
2022-12-09T14:32:28.934Z,14.67
2022-12-09T14:35:01.358Z,12.93
2022-12-09T14:37:34.348Z,14.27
2022-12-09T14:40:03.824Z,14.47
2022-12-09T14:42:35.190Z,17.63
2022-12-09T14:47:32.990Z,18.60
2022-12-09T14:50:08.905Z,20.97
2022-12-09T14:52:35.630Z,16.73
2022-12-09T14:55:04.651Z,16.50
2022-12-09T14:57:37.605Z,17.60
2022-12-09T15:00:05.603Z,21.27
2022-12-09T15:02:35.661Z,27.23
2022-12-09T15:05:02.491Z,31.00
2022-12-09T15:07:30.452Z,35.57
2022-12-09T15:09:56.949Z,31.40
2022-12-09T15:12:29.805Z,30.20
2022-12-09T15:15:07.784Z,27.63
2022-12-09T15:17:36.650Z,24.97
2022-12-09T15:20:04.186Z,24.70
2022-12-09T15:22:31.717Z,24.00
2022-12-09T15:24:58.433Z,26.17
2022-12-09T15:27:25.961Z,24.93
2022-12-09T15:29:53.121Z,23.60
2022-12-09T15:32:26.924Z,23.93
2022-12-09T15:34:54.501Z,23.03
2022-12-09T15:37:26.272Z,21.53
2022-12-09T15:39:58.940Z,20.53
2022-12-09T15:42:27.277Z,20.50
2022-12-09T15:45:00.122Z,21.57
2022-12-09T15:47:29.456Z,20.90
2022-12-09T15:49:57.346Z,20.87
2022-12-09T15:52:25.401Z,22.37
2022-12-09T15:54:52.301Z,22.80
2022-12-09T15:57:20.194Z,22.50
2022-12-09T15:59:55.458Z,23.80
2022-12-09T16:02:30.377Z,22.80
2022-12-09T16:05:00.575Z,22.37
2022-12-09T16:07:27.559Z,21.53
2022-12-09T16:10:06.545Z,19.63
2022-12-09T16:12:34.407Z,19.67
2022-12-09T16:15:01.206Z,20.00
2022-12-09T16:17:29.324Z,18.37
2022-12-09T16:19:55.803Z,18.13
2022-12-09T16:22:29.305Z,19.50
2022-12-09T16:25:19.892Z,18.43
2022-12-09T16:27:48.877Z,18.33
2022-12-09T16:30:20.330Z,19.87
2022-12-09T16:32:48.104Z,19.67
2022-12-09T16:35:17.328Z,20.33
2022-12-09T16:38:03.709Z,19.20
2022-12-09T16:40:31.960Z,21.20
2022-12-09T16:43:28.941Z,19.90
2022-12-09T16:45:56.668Z,23.47
2022-12-09T16:48:24.628Z,22.23
2022-12-09T16:50:53.280Z,24.07
2022-12-09T16:53:41.154Z,25.00
2022-12-09T16:56:16.797Z,25.07
2022-12-09T16:58:43.217Z,25.87
2022-12-09T17:01:11.664Z,26.93
2022-12-09T17:03:40.935Z,27.13
2022-12-09T17:06:09.691Z,29.20
2022-12-09T17:08:37.884Z,29.13
2022-12-09T17:11:04.370Z,31.70
2022-12-09T17:13:30.794Z,32.33
2022-12-09T17:15:58.647Z,29.67
2022-12-09T17:18:25.769Z,34.23
2022-12-09T17:21:01.417Z,33.30
2022-12-09T17:23:28.104Z,30.13
2022-12-09T17:25:58.375Z,34.87
2022-12-09T17:28:29.781Z,31.92
2022-12-09T17:30:57.164Z,30.47
2022-12-09T17:33:24.893Z,32.30
2022-12-09T17:35:51.853Z,27.63
2022-12-09T17:38:18.601Z,28.30
2022-12-09T17:40:44.991Z,26.90
2022-12-09T17:43:11.589Z,30.67
2022-12-09T17:45:42.095Z,28.53
2022-12-09T17:48:09.029Z,30.45
2022-12-09T17:50:37.106Z,27.93
2022-12-09T17:53:03.575Z,23.83
2022-12-09T17:55:30.042Z,27.10
2022-12-09T17:57:56.429Z,23.77
2022-12-09T18:00:22.985Z,24.57
2022-12-09T18:02:49.349Z,22.63
2022-12-09T18:05:15.798Z,23.70
2022-12-09T18:07:42.308Z,24.80
2022-12-09T18:10:09.101Z,25.47
2022-12-09T18:12:35.726Z,27.33
2022-12-09T18:15:02.430Z,28.87
2022-12-09T18:17:28.943Z,31.00
2022-12-09T18:19:55.494Z,29.70
2022-12-09T18:22:22.095Z,29.87
2022-12-09T18:24:48.543Z,29.10
2022-12-09T18:27:15.112Z,31.33
2022-12-09T18:29:41.942Z,28.90
2022-12-09T18:32:08.353Z,28.60
2022-12-09T18:34:35.684Z,26.17
2022-12-09T18:37:02.632Z,27.27
2022-12-09T18:39:29.168Z,26.37
2022-12-09T18:41:55.556Z,24.37
2022-12-09T18:44:22.002Z,22.87
2022-12-09T18:46:49.648Z,22.63
2022-12-09T18:49:17.241Z,22.83
2022-12-09T18:51:44.503Z,25.03
2022-12-09T18:54:14.412Z,24.33
2022-12-09T18:56:40.882Z,23.80
2022-12-09T18:59:08.905Z,22.40
2022-12-09T19:01:39.350Z,23.60
2022-12-09T19:04:07.456Z,26.35
2022-12-09T19:06:38.013Z,28.77
2022-12-09T19:09:06.189Z,29.10
2022-12-09T19:11:33.637Z,31.60
2022-12-09T19:14:00.080Z,34.57
2022-12-09T19:16:27.239Z,46.53
2022-12-09T19:18:53.919Z,34.67
2022-12-09T19:21:21.328Z,31.07
2022-12-09T19:23:48.126Z,31.43
2022-12-09T19:26:15.733Z,24.60
2022-12-09T19:28:46.637Z,28.57
2022-12-09T19:31:21.194Z,25.35
2022-12-09T19:33:48.108Z,23.13
2022-12-09T19:36:14.623Z,24.50
2022-12-09T19:38:41.121Z,24.70
2022-12-09T19:41:08.025Z,24.00
2022-12-09T19:43:34.626Z,21.63
2022-12-09T19:46:05.580Z,23.13
2022-12-09T19:48:33.740Z,24.23
2022-12-09T19:51:02.552Z,26.87
2022-12-09T19:53:28.913Z,29.80
2022-12-09T19:55:55.364Z,30.83
2022-12-09T19:58:21.769Z,33.40
2022-12-09T20:00:48.405Z,32.03
2022-12-09T20:03:14.986Z,31.10
2022-12-09T20:05:49.222Z,27.93
2022-12-09T20:08:15.672Z,27.37
2022-12-09T20:10:45.533Z,27.20
2022-12-09T20:13:12.874Z,24.67
2022-12-09T20:15:39.564Z,25.30
2022-12-09T20:18:06.462Z,24.40
2022-12-09T20:20:33.395Z,26.20
2022-12-09T20:23:00.444Z,28.87
2022-12-09T20:25:26.917Z,26.87
2022-12-09T20:27:53.528Z,26.63
2022-12-09T20:30:20.537Z,24.63
2022-12-09T20:32:48.628Z,24.57
2022-12-09T20:35:15.199Z,24.23
2022-12-09T20:37:41.710Z,33.00
2022-12-09T20:40:08.907Z,33.00
2022-12-09T20:42:35.528Z,33.97
2022-12-09T20:45:02.175Z,41.03
2022-12-09T20:47:28.585Z,41.57
2022-12-09T20:49:54.977Z,26.53
2022-12-09T20:52:21.481Z,56.23
2022-12-09T20:54:47.891Z,28.80
2022-12-09T20:57:14.538Z,28.70
2022-12-09T20:59:40.995Z,29.83
2022-12-09T21:02:13.650Z,28.53
2022-12-09T21:04:40.429Z,24.67
2022-12-09T21:07:06.834Z,30.60
2022-12-09T21:09:33.337Z,29.37
2022-12-09T21:12:00.311Z,31.77
2022-12-09T21:14:31.170Z,34.27
2022-12-09T21:16:59.180Z,35.77
2022-12-09T21:19:29.944Z,36.37
2022-12-09T21:21:56.513Z,33.22
2022-12-09T21:24:24.253Z,38.30
2022-12-09T21:26:53.376Z,32.07
2022-12-09T21:29:20.252Z,70.50
2022-12-09T21:31:48.667Z,32.73
2022-12-09T21:34:15.346Z,54.40
2022-12-09T21:36:42.836Z,32.50
2022-12-09T21:39:11.330Z,29.87
2022-12-09T21:41:37.833Z,29.77
2022-12-09T21:44:05.056Z,50.27
2022-12-09T21:46:35.929Z,30.23
2022-12-09T21:49:04.438Z,26.15
2022-12-09T21:51:31.397Z,30.17
2022-12-09T21:53:57.816Z,31.43
2022-12-09T21:56:25.102Z,35.77
2022-12-09T21:58:53.114Z,36.70
2022-12-09T22:01:23.876Z,34.20
2022-12-09T22:03:50.355Z,34.42
2022-12-09T22:06:17.227Z,35.60
2022-12-09T22:08:43.892Z,32.03
2022-12-09T22:11:11.551Z,31.80
2022-12-09T22:13:39.701Z,29.70
2022-12-09T22:16:10.942Z,28.07
2022-12-09T22:18:37.743Z,28.77
2022-12-09T22:23:53.257Z,30.07
2022-12-09T22:26:20.325Z,29.93
2022-12-09T22:28:46.848Z,25.33
2022-12-09T22:31:23.593Z,24.23
2022-12-09T22:33:51.049Z,25.17
2022-12-09T22:36:18.063Z,26.80
2022-12-09T22:38:46.078Z,29.77
2022-12-09T22:41:13.806Z,26.07
2022-12-09T22:43:40.723Z,24.90
2022-12-09T22:46:08.877Z,29.27
2022-12-09T22:48:35.413Z,27.90
2022-12-09T22:51:06.149Z,28.10
2022-12-09T22:53:32.963Z,28.50
2022-12-09T22:56:00.268Z,29.60
2022-12-09T22:58:27.280Z,27.00
2022-12-09T23:00:54.252Z,27.20
2022-12-09T23:03:20.850Z,27.20
2022-12-09T23:05:47.516Z,24.23
2022-12-09T23:08:14.144Z,25.17
2022-12-09T23:10:40.701Z,24.93
2022-12-09T23:13:07.448Z,28.40
2022-12-09T23:15:34.364Z,30.27
2022-12-09T23:18:00.869Z,31.23
2022-12-09T23:20:27.337Z,32.03
2022-12-09T23:22:53.902Z,32.53
2022-12-09T23:25:20.385Z,38.57
2022-12-09T23:27:46.780Z,34.80
2022-12-09T23:30:13.369Z,36.53
2022-12-09T23:32:39.813Z,32.00
2022-12-09T23:35:07.653Z,31.30
2022-12-09T23:37:34.289Z,30.97
2022-12-09T23:40:00.697Z,31.13
2022-12-09T23:42:27.133Z,28.03
2022-12-09T23:44:53.530Z,24.30
2022-12-09T23:47:19.969Z,24.33
2022-12-09T23:49:46.434Z,22.90
2022-12-09T23:52:12.940Z,26.57
2022-12-09T23:54:39.413Z,30.63
2022-12-09T23:57:05.855Z,29.93
2022-12-09T23:59:32.298Z,30.73
